sensor_id;sensor_type;location;lat;lon;timestamp;pressure;altitude;pressure_sealevel;temperature;humidity
55757;BME280;41676;44.610;44.078;2023-01-26T00:02:52;101601.72;;;-7.87;75.79
55757;BME280;41676;44.610;44.078;2023-01-26T00:07:52;101621.47;;;-7.83;75.88
55757;BME280;41676;44.610;44.078;2023-01-26T00:12:53;101728.44;;;-7.41;75.80
55757;BME280;41676;44.610;44.078;2023-01-26T00:17:54;101646.53;;;-7.96;76.38
55757;BME280;41676;44.610;44.078;2023-01-26T00:22:55;101593.84;;;-8.44;76.51
55757;BME280;41676;44.610;44.078;2023-01-26T00:27:56;101726.09;;;-7.59;76.78
55757;BME280;41676;44.610;44.078;2023-01-26T00:32:57;101516.19;;;-8.89;76.68
55757;BME280;41676;44.610;44.078;2023-01-26T00:37:58;101725.38;;;-7.73;76.88
55757;BME280;41676;44.610;44.078;2023-01-26T00:42:58;101604.88;;;-8.35;76.94
55757;BME280;41676;44.610;44.078;2023-01-26T00:47:59;101517.91;;;-8.87;76.76
55757;BME280;41676;44.610;44.078;2023-01-26T00:53:00;101612.75;;;-8.44;76.66
55757;BME280;41676;44.610;44.078;2023-01-26T00:58:05;101480.38;;;-9.12;76.74
55757;BME280;41676;44.610;44.078;2023-01-26T01:03:06;101747.50;;;-7.54;76.25
55757;BME280;41676;44.610;44.078;2023-01-26T01:08:07;101739.78;;;-7.57;76.35
55757;BME280;41676;44.610;44.078;2023-01-26T01:13:08;101670.69;;;-8.03;76.29
55757;BME280;41676;44.610;44.078;2023-01-26T01:18:08;101558.13;;;-8.75;75.73
55757;BME280;41676;44.610;44.078;2023-01-26T01:23:09;101550.69;;;-9.06;76.00
55757;BME280;41676;44.610;44.078;2023-01-26T01:28:10;101588.09;;;-8.66;76.02
55757;BME280;41676;44.610;44.078;2023-01-26T01:33:11;101541.06;;;-8.88;76.21
55757;BME280;41676;44.610;44.078;2023-01-26T01:38:11;101746.81;;;-7.65;76.01
55757;BME280;41676;44.610;44.078;2023-01-26T01:43:12;101700.72;;;-7.99;76.22
55757;BME280;41676;44.610;44.078;2023-01-26T01:53:38;101702.41;;;-7.95;76.55
55757;BME280;41676;44.610;44.078;2023-01-26T01:58:42;101697.22;;;-7.93;76.54
55757;BME280;41676;44.610;44.078;2023-01-26T02:03:44;101571.78;;;-8.67;76.45
55757;BME280;41676;44.610;44.078;2023-01-26T02:08:49;101742.53;;;-7.69;76.27
55757;BME280;41676;44.610;44.078;2023-01-26T02:13:50;101557.31;;;-8.79;76.41
55757;BME280;41676;44.610;44.078;2023-01-26T02:18:51;101679.44;;;-8.18;76.42
55757;BME280;41676;44.610;44.078;2023-01-26T02:24:14;101700.94;;;-8.17;77.43
55757;BME280;41676;44.610;44.078;2023-01-26T02:29:18;101493.59;;;-9.49;77.38
55757;BME280;41676;44.610;44.078;2023-01-26T02:34:19;101748.03;;;-7.98;78.14
55757;BME280;41676;44.610;44.078;2023-01-26T02:39:57;101744.59;;;-8.00;79.05
55757;BME280;41676;44.610;44.078;2023-01-26T02:44:59;101660.13;;;-8.59;78.25
55757;BME280;41676;44.610;44.078;2023-01-26T02:50:00;101690.13;;;-8.52;78.03
55757;BME280;41676;44.610;44.078;2023-01-26T02:55:00;101639.75;;;-8.82;78.19
55757;BME280;41676;44.610;44.078;2023-01-26T03:00:25;101733.75;;;-8.35;77.40
55757;BME280;41676;44.610;44.078;2023-01-26T03:05:27;101660.44;;;-8.94;77.53
55757;BME280;41676;44.610;44.078;2023-01-26T03:10:28;101733.88;;;-8.47;77.66
55757;BME280;41676;44.610;44.078;2023-01-26T03:15:29;101769.75;;;-8.22;78.11
55757;BME280;41676;44.610;44.078;2023-01-26T03:20:42;101750.91;;;-8.32;77.45
55757;BME280;41676;44.610;44.078;2023-01-26T03:26:01;101730.38;;;-8.38;77.72
55757;BME280;41676;44.610;44.078;2023-01-26T03:45:53;101773.94;;;-8.12;80.15
55757;BME280;41676;44.610;44.078;2023-01-26T03:51:13;101784.19;;;-8.08;79.27
55757;BME280;41676;44.610;44.078;2023-01-26T03:56:32;101722.81;;;-8.55;78.78
55757;BME280;41676;44.610;44.078;2023-01-26T04:01:38;101659.72;;;-9.11;79.39
55757;BME280;41676;44.610;44.078;2023-01-26T04:06:42;101728.91;;;-8.68;79.44
55757;BME280;41676;44.610;44.078;2023-01-26T04:12:02;101786.91;;;-8.21;79.33
55757;BME280;41676;44.610;44.078;2023-01-26T04:17:04;101816.88;;;-8.07;79.02
55757;BME280;41676;44.610;44.078;2023-01-26T04:22:23;101780.06;;;-8.22;79.04
55757;BME280;41676;44.610;44.078;2023-01-26T04:27:24;101760.38;;;-8.31;78.83
55757;BME280;41676;44.610;44.078;2023-01-26T04:32:24;101731.31;;;-8.45;79.25
55757;BME280;41676;44.610;44.078;2023-01-26T04:37:26;101826.22;;;-7.95;78.58
55757;BME280;41676;44.610;44.078;2023-01-26T04:42:27;101787.72;;;-8.18;78.42
55757;BME280;41676;44.610;44.078;2023-01-26T04:47:28;101833.09;;;-7.97;78.62
55757;BME280;41676;44.610;44.078;2023-01-26T04:52:29;101768.09;;;-8.33;78.03
55757;BME280;41676;44.610;44.078;2023-01-26T04:57:29;101720.25;;;-8.58;78.26
55757;BME280;41676;44.610;44.078;2023-01-26T05:02:30;101774.78;;;-8.10;78.45
55757;BME280;41676;44.610;44.078;2023-01-26T05:07:31;101752.50;;;-8.17;77.88
55757;BME280;41676;44.610;44.078;2023-01-26T05:12:31;101812.69;;;-7.35;78.81
55757;BME280;41676;44.610;44.078;2023-01-26T05:17:32;101750.94;;;-7.52;79.29
55757;BME280;41676;44.610;44.078;2023-01-26T05:22:35;101849.81;;;-6.76;79.51
55757;BME280;41676;44.610;44.078;2023-01-26T05:46:31;101701.53;;;-6.17;84.13
55757;BME280;41676;44.610;44.078;2023-01-26T05:51:31;101837.53;;;-5.13;82.79
55757;BME280;41676;44.610;44.078;2023-01-26T05:56:32;101881.91;;;-4.86;82.20
55757;BME280;41676;44.610;44.078;2023-01-26T06:01:33;101886.31;;;-4.90;81.49
55757;BME280;41676;44.610;44.078;2023-01-26T06:06:34;101833.19;;;-5.11;81.81
55757;BME280;41676;44.610;44.078;2023-01-26T06:11:34;101748.56;;;-5.54;81.34
55757;BME280;41676;44.610;44.078;2023-01-26T06:16:35;101817.84;;;-5.21;81.20
55757;BME280;41676;44.610;44.078;2023-01-26T06:21:36;101893.56;;;-4.67;81.48
55757;BME280;41676;44.610;44.078;2023-01-26T06:26:36;101756.72;;;-5.30;82.20
55757;BME280;41676;44.610;44.078;2023-01-26T06:31:37;101771.28;;;-4.86;82.05
55757;BME280;41676;44.610;44.078;2023-01-26T06:36:38;101812.88;;;-4.51;81.81
55757;BME280;41676;44.610;44.078;2023-01-26T06:41:41;101803.28;;;-4.49;82.53
55757;BME280;41676;44.610;44.078;2023-01-26T06:46:43;101695.81;;;-4.73;82.72
55757;BME280;41676;44.610;44.078;2023-01-26T06:51:53;101869.41;;;-3.58;82.65
55757;BME280;41676;44.610;44.078;2023-01-26T06:56:55;101858.44;;;-3.37;81.60
55757;BME280;41676;44.610;44.078;2023-01-26T07:01:56;101769.50;;;-3.78;81.94
55757;BME280;41676;44.610;44.078;2023-01-26T07:06:56;101854.22;;;-3.41;81.74
55757;BME280;41676;44.610;44.078;2023-01-26T07:11:57;101791.31;;;-3.85;81.80
55757;BME280;41676;44.610;44.078;2023-01-26T07:16:58;101859.44;;;-3.41;82.81
55757;BME280;41676;44.610;44.078;2023-01-26T07:21:59;101716.91;;;-4.17;83.22
55757;BME280;41676;44.610;44.078;2023-01-26T07:27:00;101846.09;;;-3.29;82.96
55757;BME280;41676;44.610;44.078;2023-01-26T07:32:01;101747.78;;;-3.75;82.63
55757;BME280;41676;44.610;44.078;2023-01-26T07:37:02;101832.75;;;-2.87;83.10
55757;BME280;41676;44.610;44.078;2023-01-26T07:42:04;101819.59;;;-2.82;82.85
55757;BME280;41676;44.610;44.078;2023-01-26T07:47:05;101765.00;;;-2.82;82.50
55757;BME280;41676;44.610;44.078;2023-01-26T07:52:06;101810.63;;;-2.44;82.58
55757;BME280;41676;44.610;44.078;2023-01-26T07:57:07;101721.50;;;-2.77;82.11
55757;BME280;41676;44.610;44.078;2023-01-26T08:02:09;101802.09;;;-1.96;82.33
55757;BME280;41676;44.610;44.078;2023-01-26T08:07:10;101820.81;;;-1.85;81.76
55757;BME280;41676;44.610;44.078;2023-01-26T08:12:10;101692.78;;;-2.22;81.62
55757;BME280;41676;44.610;44.078;2023-01-26T08:17:11;101793.22;;;-1.40;80.77
55757;BME280;41676;44.610;44.078;2023-01-26T08:22:12;101722.75;;;-2.11;80.78
55757;BME280;41676;44.610;44.078;2023-01-26T08:27:13;101665.16;;;-2.26;81.14
55757;BME280;41676;44.610;44.078;2023-01-26T08:32:15;101734.00;;;-1.60;79.87
55757;BME280;41676;44.610;44.078;2023-01-26T08:37:16;101660.91;;;-2.29;80.83
55757;BME280;41676;44.610;44.078;2023-01-26T08:42:17;101723.50;;;-2.07;80.58
55757;BME280;41676;44.610;44.078;2023-01-26T08:47:17;101687.75;;;-2.27;81.35
55757;BME280;41676;44.610;44.078;2023-01-26T08:52:18;101777.25;;;-1.31;80.67
55757;BME280;41676;44.610;44.078;2023-01-26T08:57:20;101684.19;;;-1.76;79.51
55757;BME280;41676;44.610;44.078;2023-01-26T09:02:21;101719.31;;;-1.63;79.99
55757;BME280;41676;44.610;44.078;2023-01-26T09:07:22;101653.03;;;-2.02;80.14
55757;BME280;41676;44.610;44.078;2023-01-26T09:12:23;101602.72;;;-2.03;80.29
55757;BME280;41676;44.610;44.078;2023-01-26T09:17:24;101662.72;;;-1.59;79.22
55757;BME280;41676;44.610;44.078;2023-01-26T09:22:25;101685.50;;;-1.41;79.50
55757;BME280;41676;44.610;44.078;2023-01-26T09:27:26;101495.19;;;-2.52;79.01
55757;BME280;41676;44.610;44.078;2023-01-26T09:32:27;101518.44;;;-2.00;78.07
55757;BME280;41676;44.610;44.078;2023-01-26T09:37:39;101432.00;;;-2.32;77.34
55757;BME280;41676;44.610;44.078;2023-01-26T09:43:20;101672.94;;;-0.87;75.96
55757;BME280;41676;44.610;44.078;2023-01-26T09:48:34;101737.06;;;-0.59;77.26
55757;BME280;41676;44.610;44.078;2023-01-26T09:53:43;101724.63;;;-0.53;77.30
55757;BME280;41676;44.610;44.078;2023-01-26T09:58:53;101652.56;;;-0.99;76.54
55757;BME280;41676;44.610;44.078;2023-01-26T10:04:04;101696.81;;;-0.33;77.04
55757;BME280;41676;44.610;44.078;2023-01-26T10:09:24;101585.31;;;-0.71;75.55
55757;BME280;41676;44.610;44.078;2023-01-26T10:14:37;101618.34;;;-0.30;75.20
55757;BME280;41676;44.610;44.078;2023-01-26T10:19:44;101589.88;;;-0.55;74.89
55757;BME280;41676;44.610;44.078;2023-01-26T10:24:49;101602.59;;;-0.68;74.83
55757;BME280;41676;44.610;44.078;2023-01-26T10:29:50;101515.94;;;-1.38;75.63
55757;BME280;41676;44.610;44.078;2023-01-26T10:34:51;101623.34;;;-0.65;75.64
55757;BME280;41676;44.610;44.078;2023-01-26T10:40:03;101404.75;;;-2.01;76.62
55757;BME280;41676;44.610;44.078;2023-01-26T10:45:22;101674.50;;;-0.20;76.19
55757;BME280;41676;44.610;44.078;2023-01-26T10:50:24;101665.34;;;-0.30;76.23
55757;BME280;41676;44.610;44.078;2023-01-26T10:55:25;101651.16;;;-0.43;76.42
55757;BME280;41676;44.610;44.078;2023-01-26T11:00:32;101541.53;;;-0.84;75.94
55757;BME280;41676;44.610;44.078;2023-01-26T11:05:33;101671.63;;;0.26;76.00
55757;BME280;41676;44.610;44.078;2023-01-26T11:10:50;101594.44;;;0.18;74.15
55757;BME280;41676;44.610;44.078;2023-01-26T11:16:16;101590.41;;;0.30;74.04
55757;BME280;41676;44.610;44.078;2023-01-26T11:21:40;101653.94;;;0.68;73.86
55757;BME280;41676;44.610;44.078;2023-01-26T11:32:05;101580.94;;;-0.50;75.17
55757;BME280;41676;44.610;44.078;2023-01-26T11:37:23;101571.47;;;-0.52;75.22
55757;BME280;41676;44.610;44.078;2023-01-26T11:47:52;101665.84;;;0.19;74.15
55757;BME280;41676;44.610;44.078;2023-01-26T11:58:26;101669.34;;;0.18;74.94
55757;BME280;41676;44.610;44.078;2023-01-26T12:03:42;101664.19;;;0.16;74.61
55757;BME280;41676;44.610;44.078;2023-01-26T12:08:53;101615.03;;;-0.34;74.28
55757;BME280;41676;44.610;44.078;2023-01-26T12:19:31;101592.03;;;-0.44;74.58
55757;BME280;41676;44.610;44.078;2023-01-26T12:24:37;101689.34;;;0.19;74.52
55757;BME280;41676;44.610;44.078;2023-01-26T12:30:04;101692.03;;;0.17;74.28
55757;BME280;41676;44.610;44.078;2023-01-26T12:35:12;101681.97;;;0.08;74.61
55757;BME280;41676;44.610;44.078;2023-01-26T12:40:35;101680.22;;;0.09;75.30
55757;BME280;41676;44.610;44.078;2023-01-26T12:45:41;101681.38;;;-0.17;75.01
55757;BME280;41676;44.610;44.078;2023-01-26T12:50:48;101644.94;;;-0.61;75.27
55757;BME280;41676;44.610;44.078;2023-01-26T12:55:55;101666.25;;;-0.72;76.11
55757;BME280;41676;44.610;44.078;2023-01-26T13:01:14;101640.81;;;-1.09;77.17
55757;BME280;41676;44.610;44.078;2023-01-26T13:16:47;101705.25;;;-1.35;77.89
55757;BME280;41676;44.610;44.078;2023-01-26T13:21:47;101616.13;;;-2.14;78.62
55757;BME280;41676;44.610;44.078;2023-01-26T13:26:53;101656.59;;;-2.05;79.69
55757;BME280;41676;44.610;44.078;2023-01-26T13:42:28;101615.00;;;-2.82;80.88
55757;BME280;41676;44.610;44.078;2023-01-26T13:47:40;101616.00;;;-2.86;81.37
55757;BME280;41676;44.610;44.078;2023-01-26T13:52:42;101726.03;;;-2.31;81.30
55757;BME280;41676;44.610;44.078;2023-01-26T13:57:43;101722.44;;;-2.53;81.81
55757;BME280;41676;44.610;44.078;2023-01-26T14:02:47;101696.94;;;-2.95;82.73
55757;BME280;41676;44.610;44.078;2023-01-26T14:07:51;101704.16;;;-3.05;83.02
55757;BME280;41676;44.610;44.078;2023-01-26T14:12:52;101731.25;;;-2.84;83.40
55757;BME280;41676;44.610;44.078;2023-01-26T14:18:03;101634.31;;;-3.43;84.66
55757;BME280;41676;44.610;44.078;2023-01-26T14:28:16;101739.25;;;-2.63;83.86
55757;BME280;41676;44.610;44.078;2023-01-26T14:33:20;101743.50;;;-2.61;83.82
55757;BME280;41676;44.610;44.078;2023-01-26T14:38:22;101770.09;;;-2.51;83.87
55757;BME280;41676;44.610;44.078;2023-01-26T14:43:24;101739.63;;;-2.76;84.41
55757;BME280;41676;44.610;44.078;2023-01-26T14:48:31;101706.91;;;-3.09;85.76
55757;BME280;41676;44.610;44.078;2023-01-26T14:53:34;101767.56;;;-2.81;85.09
55757;BME280;41676;44.610;44.078;2023-01-26T14:58:35;101787.94;;;-2.95;85.91
55757;BME280;41676;44.610;44.078;2023-01-26T15:03:37;101706.81;;;-3.36;86.20
55757;BME280;41676;44.610;44.078;2023-01-26T15:08:39;101764.72;;;-3.01;86.22
55757;BME280;41676;44.610;44.078;2023-01-26T15:13:41;101764.91;;;-3.07;86.99
55757;BME280;41676;44.610;44.078;2023-01-26T15:18:43;101638.94;;;-3.83;87.50
55757;BME280;41676;44.610;44.078;2023-01-26T15:23:49;101669.81;;;-3.44;88.11
55757;BME280;41676;44.610;44.078;2023-01-26T15:28:54;101574.03;;;-3.83;88.23
55757;BME280;41676;44.610;44.078;2023-01-26T15:33:56;101716.63;;;-2.88;88.34
55757;BME280;41676;44.610;44.078;2023-01-26T15:39:10;101678.28;;;-3.08;89.34
55757;BME280;41676;44.610;44.078;2023-01-26T15:44:18;101714.13;;;-2.91;89.28
55757;BME280;41676;44.610;44.078;2023-01-26T15:49:20;101640.59;;;-3.51;88.92
55757;BME280;41676;44.610;44.078;2023-01-26T15:54:22;101669.69;;;-3.39;89.38
55757;BME280;41676;44.610;44.078;2023-01-26T15:59:23;101723.78;;;-3.23;89.81
55757;BME280;41676;44.610;44.078;2023-01-26T16:04:24;101718.97;;;-3.36;89.94
55757;BME280;41676;44.610;44.078;2023-01-26T16:09:27;101593.09;;;-4.14;89.48
55757;BME280;41676;44.610;44.078;2023-01-26T16:14:27;101709.13;;;-3.55;90.03
55757;BME280;41676;44.610;44.078;2023-01-26T16:19:28;101667.66;;;-3.89;89.76
55757;BME280;41676;44.610;44.078;2023-01-26T16:24:29;101708.91;;;-3.78;89.94
55757;BME280;41676;44.610;44.078;2023-01-26T16:29:30;101568.22;;;-4.85;89.55
55757;BME280;41676;44.610;44.078;2023-01-26T16:34:31;101745.44;;;-3.84;89.26
55757;BME280;41676;44.610;44.078;2023-01-26T16:39:31;101753.25;;;-3.86;89.42
55757;BME280;41676;44.610;44.078;2023-01-26T16:44:32;101716.63;;;-4.06;89.94
55757;BME280;41676;44.610;44.078;2023-01-26T16:49:33;101579.72;;;-4.95;89.46
55757;BME280;41676;44.610;44.078;2023-01-26T16:54:34;101621.56;;;-4.76;90.05
55757;BME280;41676;44.610;44.078;2023-01-26T16:59:34;101640.44;;;-4.69;89.39
55757;BME280;41676;44.610;44.078;2023-01-26T17:04:35;101500.19;;;-5.61;89.64
55757;BME280;41676;44.610;44.078;2023-01-26T17:09:38;101740.06;;;-4.09;89.80
55757;BME280;41676;44.610;44.078;2023-01-26T17:14:39;101736.81;;;-4.18;89.60
55757;BME280;41676;44.610;44.078;2023-01-26T17:19:39;101675.69;;;-4.64;89.67
55757;BME280;41676;44.610;44.078;2023-01-26T17:24:40;101656.41;;;-4.86;89.42
55757;BME280;41676;44.610;44.078;2023-01-26T17:29:42;101724.69;;;-4.51;89.34
55757;BME280;41676;44.610;44.078;2023-01-26T17:34:42;101711.56;;;-4.81;89.30
55757;BME280;41676;44.610;44.078;2023-01-26T17:39:43;101731.34;;;-4.77;89.59
55757;BME280;41676;44.610;44.078;2023-01-26T17:44:44;101689.69;;;-5.05;89.30
55757;BME280;41676;44.610;44.078;2023-01-26T17:49:45;101743.69;;;-4.88;88.91
55757;BME280;41676;44.610;44.078;2023-01-26T17:54:46;101574.25;;;-5.93;88.64
55757;BME280;41676;44.610;44.078;2023-01-26T17:59:46;101706.38;;;-5.18;88.68
55757;BME280;41676;44.610;44.078;2023-01-26T18:04:48;101547.41;;;-6.28;88.73
55757;BME280;41676;44.610;44.078;2023-01-26T18:09:48;101714.28;;;-5.24;88.66
55757;BME280;41676;44.610;44.078;2023-01-26T18:14:49;101499.00;;;-6.63;88.42
55757;BME280;41676;44.610;44.078;2023-01-26T18:19:50;101652.09;;;-5.63;88.14
55757;BME280;41676;44.610;44.078;2023-01-26T18:24:51;101693.06;;;-5.40;87.83
55757;BME280;41676;44.610;44.078;2023-01-26T18:29:52;101602.19;;;-6.09;87.97
55757;BME280;41676;44.610;44.078;2023-01-26T18:34:53;101679.72;;;-5.62;88.27
55757;BME280;41676;44.610;44.078;2023-01-26T18:39:54;101653.91;;;-5.67;88.00
55757;BME280;41676;44.610;44.078;2023-01-26T18:44:55;101496.47;;;-6.66;87.52
55757;BME280;41676;44.610;44.078;2023-01-26T18:50:00;101676.31;;;-5.64;87.27
55757;BME280;41676;44.610;44.078;2023-01-26T18:55:00;101560.50;;;-6.35;87.25
55757;BME280;41676;44.610;44.078;2023-01-26T19:00:03;101679.94;;;-5.73;86.86
55757;BME280;41676;44.610;44.078;2023-01-26T19:05:06;101650.28;;;-5.99;86.05
55757;BME280;41676;44.610;44.078;2023-01-26T19:10:07;101629.69;;;-6.05;86.57
55757;BME280;41676;44.610;44.078;2023-01-26T19:15:09;101587.25;;;-6.38;86.50
55757;BME280;41676;44.610;44.078;2023-01-26T19:20:10;101656.22;;;-5.93;85.96
55757;BME280;41676;44.610;44.078;2023-01-26T19:25:11;101674.38;;;-5.95;85.83
55757;BME280;41676;44.610;44.078;2023-01-26T19:30:13;101654.81;;;-6.10;86.51
55757;BME280;41676;44.610;44.078;2023-01-26T19:35:13;101645.09;;;-5.99;86.93
55757;BME280;41676;44.610;44.078;2023-01-26T19:40:14;101456.06;;;-7.14;85.99
55757;BME280;41676;44.610;44.078;2023-01-26T19:45:15;101610.34;;;-6.29;85.73
55757;BME280;41676;44.610;44.078;2023-01-26T19:50:16;101616.22;;;-6.21;85.20
55757;BME280;41676;44.610;44.078;2023-01-26T19:55:17;101537.53;;;-6.51;85.26
55757;BME280;41676;44.610;44.078;2023-01-26T20:00:18;101551.19;;;-6.44;85.97
55757;BME280;41676;44.610;44.078;2023-01-26T20:05:19;101644.25;;;-5.98;85.91
55757;BME280;41676;44.610;44.078;2023-01-26T20:10:20;101461.88;;;-7.04;86.17
55757;BME280;41676;44.610;44.078;2023-01-26T20:15:21;101638.53;;;-5.75;86.79
55757;BME280;41676;44.610;44.078;2023-01-26T20:20:21;101623.06;;;-5.76;86.50
55757;BME280;41676;44.610;44.078;2023-01-26T20:25:22;101614.13;;;-5.63;86.37
55757;BME280;41676;44.610;44.078;2023-01-26T20:30:23;101575.19;;;-5.58;86.86
55757;BME280;41676;44.610;44.078;2023-01-26T20:35:24;101594.22;;;-5.22;86.68
55757;BME280;41676;44.610;44.078;2023-01-26T20:40:25;101615.16;;;-4.95;86.77
55757;BME280;41676;44.610;44.078;2023-01-26T20:45:27;101512.94;;;-5.54;86.90
55757;BME280;41676;44.610;44.078;2023-01-26T20:50:28;101496.69;;;-5.59;87.27
55757;BME280;41676;44.610;44.078;2023-01-26T20:55:41;101585.13;;;-5.02;87.55
55757;BME280;41676;44.610;44.078;2023-01-26T21:00:42;101556.56;;;-5.35;86.77
55757;BME280;41676;44.610;44.078;2023-01-26T21:05:43;101502.03;;;-5.66;86.74
55757;BME280;41676;44.610;44.078;2023-01-26T21:10:44;101582.38;;;-5.32;87.03
55757;BME280;41676;44.610;44.078;2023-01-26T21:15:48;101479.84;;;-6.12;86.97
55757;BME280;41676;44.610;44.078;2023-01-26T21:21:00;101591.09;;;-5.74;86.80
55757;BME280;41676;44.610;44.078;2023-01-26T21:26:11;101572.06;;;-6.10;86.98
55757;BME280;41676;44.610;44.078;2023-01-26T21:31:13;101544.56;;;-6.15;87.06
55757;BME280;41676;44.610;44.078;2023-01-26T21:36:17;101577.25;;;-5.72;87.39
55757;BME280;41676;44.610;44.078;2023-01-26T21:41:19;101568.03;;;-5.47;88.26
55757;BME280;41676;44.610;44.078;2023-01-26T21:46:39;101576.38;;;-5.36;87.86
55757;BME280;41676;44.610;44.078;2023-01-26T21:51:41;101486.34;;;-5.59;87.05
55757;BME280;41676;44.610;44.078;2023-01-26T21:57:02;101453.47;;;-5.57;86.98
55757;BME280;41676;44.610;44.078;2023-01-26T22:02:03;101469.25;;;-5.32;86.84
55757;BME280;41676;44.610;44.078;2023-01-26T22:07:04;101559.84;;;-4.62;87.40
55757;BME280;41676;44.610;44.078;2023-01-26T22:12:05;101547.34;;;-4.47;87.45
55757;BME280;41676;44.610;44.078;2023-01-26T22:17:06;101500.84;;;-4.53;87.39
55757;BME280;41676;44.610;44.078;2023-01-26T22:22:06;101394.91;;;-4.97;87.02
55757;BME280;41676;44.610;44.078;2023-01-26T22:27:07;101515.16;;;-4.10;87.39
55757;BME280;41676;44.610;44.078;2023-01-26T22:32:08;101495.50;;;-3.90;87.58
55757;BME280;41676;44.610;44.078;2023-01-26T22:37:09;101532.44;;;-3.53;87.59
55757;BME280;41676;44.610;44.078;2023-01-26T22:42:10;101494.44;;;-3.56;87.43
55757;BME280;41676;44.610;44.078;2023-01-26T22:47:10;101520.78;;;-3.15;87.50
55757;BME280;41676;44.610;44.078;2023-01-26T22:52:11;101495.84;;;-3.21;87.43
55757;BME280;41676;44.610;44.078;2023-01-26T22:57:12;101379.28;;;-3.81;87.42
55757;BME280;41676;44.610;44.078;2023-01-26T23:02:13;101512.44;;;-2.98;88.00
55757;BME280;41676;44.610;44.078;2023-01-26T23:07:14;101479.72;;;-3.05;88.57
55757;BME280;41676;44.610;44.078;2023-01-26T23:12:14;101478.31;;;-2.89;89.10
55757;BME280;41676;44.610;44.078;2023-01-26T23:17:15;101486.47;;;-2.74;88.76
55757;BME280;41676;44.610;44.078;2023-01-26T23:22:16;101479.03;;;-2.60;88.63
55757;BME280;41676;44.610;44.078;2023-01-26T23:27:17;101524.84;;;-2.33;88.80
55757;BME280;41676;44.610;44.078;2023-01-26T23:32:17;101486.94;;;-2.40;89.31
55757;BME280;41676;44.610;44.078;2023-01-26T23:37:18;101442.53;;;-2.59;89.26
55757;BME280;41676;44.610;44.078;2023-01-26T23:42:19;101462.53;;;-2.37;89.99
55757;BME280;41676;44.610;44.078;2023-01-26T23:47:20;101510.94;;;-2.10;89.98
55757;BME280;41676;44.610;44.078;2023-01-26T23:52:21;101393.69;;;-2.74;89.81
55757;BME280;41676;44.610;44.078;2023-01-26T23:57:23;101485.50;;;-2.25;90.25
